Time;durP1;ratioP1;P1;durP2;ratioP2;P2;SDS_P1;SDS_P2;PMS_P1;PMS_P2;Temp;Humidity;BMP_temperature;BMP_pressure;BME280_temperature;BME280_humidity;BME280_pressure;Samples;Min_cycle;Max_cycle;Signal;HPM_P1;HPM_P2
2021/03/07 00:01:17;;;;;;;12.93;8.70;;;1.60;67.90;;;1.03;70.67;99111.19;5057958;28;21314;-74
2021/03/07 00:03:45;;;;;;;18.07;10.73;;;1.60;68.00;;;1.01;70.37;99110.38;5064134;28;20630;-74
2021/03/07 00:06:12;;;;;;;17.13;10.40;;;1.60;67.80;;;0.97;70.62;99111.28;5070698;28;20635;-76
2021/03/07 00:08:40;;;;;;;14.90;10.20;;;1.50;67.40;;;0.93;70.57;99101.91;5063049;28;20648;-74
2021/03/07 00:11:21;;;;;;;14.10;9.17;;;1.50;67.90;;;0.91;71.03;99101.09;5065331;28;20631;-74
2021/03/07 00:13:49;;;;;;;10.53;7.33;;;1.50;68.90;;;0.90;70.84;99101.09;5062292;28;20640;-74
2021/03/07 00:16:18;;;;;;;11.80;8.60;;;1.40;68.10;;;0.87;71.08;99096.84;5065605;28;20749;-74
2021/03/07 00:18:46;;;;;;;13.93;8.57;;;1.40;68.20;;;0.84;71.12;99099.47;5066374;28;20639;-76
2021/03/07 00:21:15;;;;;;;14.27;8.47;;;1.40;68.40;;;0.81;70.72;99096.94;5067647;28;20627;-74
2021/03/07 00:23:43;;;;;;;12.57;8.43;;;1.40;68.40;;;0.77;71.53;99097.88;5063488;28;20638;-74
2021/03/07 00:26:11;;;;;;;13.23;7.70;;;1.30;68.60;;;0.75;71.27;99099.63;5064785;28;20627;-74
2021/03/07 00:28:39;;;;;;;13.63;8.73;;;1.30;68.90;;;0.72;71.49;99088.53;5064833;28;21195;-74
2021/03/07 00:31:07;;;;;;;10.80;7.50;;;1.30;68.90;;;0.69;71.58;99104.84;5063726;28;20644;-74
2021/03/07 00:33:35;;;;;;;12.17;8.30;;;1.30;68.40;;;0.70;71.19;99100.53;5064870;28;20635;-74
2021/03/07 00:36:04;;;;;;;13.70;8.53;;;1.30;69.10;;;0.69;71.56;99099.72;5065299;28;20687;-74
2021/03/07 00:38:31;;;;;;;11.17;7.77;;;1.20;69.00;;;0.67;71.22;99095.47;5063065;28;20628;-74
2021/03/07 00:41:00;;;;;;;10.67;7.80;;;1.30;68.90;;;0.64;71.03;99098.06;5056476;28;20698;-74
2021/03/07 00:43:27;;;;;;;12.23;7.37;;;1.20;69.10;;;0.65;71.47;99098.03;5069204;28;20639;-74
2021/03/07 00:45:56;;;;;;;10.37;7.67;;;1.20;69.10;;;0.68;71.59;99102.28;5058013;28;20784;-76
2021/03/07 00:48:24;;;;;;;9.73;7.30;;;1.20;69.00;;;0.68;71.07;99107.44;5063634;28;20750;-76
2021/03/07 00:50:52;;;;;;;11.60;8.43;;;1.20;69.00;;;0.60;71.46;99094.69;5066500;28;20639;-76
2021/03/07 00:53:19;;;;;;;11.20;7.87;;;1.20;68.90;;;0.64;71.26;99103.19;5061113;28;20627;-76
2021/03/07 00:55:47;;;;;;;11.50;7.93;;;1.20;69.10;;;0.60;71.49;99092.13;5061144;28;20672;-76
2021/03/07 00:58:15;;;;;;;11.33;7.20;;;1.20;69.10;;;0.57;71.39;99096.44;5063677;28;20635;-76
2021/03/07 01:00:46;;;;;;;11.20;8.30;;;1.10;68.90;;;0.51;71.50;99088.81;5059477;28;20646;-74
2021/03/07 01:03:15;;;;;;;9.87;7.20;;;1.10;69.10;;;0.48;72.06;99091.41;5061932;28;20798;-74
2021/03/07 01:05:43;;;;;;;10.63;7.50;;;1.10;69.60;;;0.45;71.62;99086.31;5069237;28;20726;-73
2021/03/07 01:08:11;;;;;;;12.03;8.33;;;1.00;69.60;;;0.46;71.99;99088.03;5069172;28;20620;-73
2021/03/07 01:10:42;;;;;;;10.80;7.43;;;1.00;69.70;;;0.43;71.80;99085.50;5058590;28;20632;-73
2021/03/07 01:13:12;;;;;;;13.07;8.50;;;1.00;69.50;;;0.41;71.57;99078.69;5060400;28;20624;-73
2021/03/07 01:15:41;;;;;;;14.33;8.57;;;1.00;69.50;;;0.42;71.92;99080.41;5071462;28;20660;-76
2021/03/07 01:18:10;;;;;;;12.27;8.20;;;1.00;69.60;;;0.39;71.97;99077.88;5064000;28;21214;-76
2021/03/07 01:20:42;;;;;;;13.33;9.03;;;1.00;70.00;;;0.36;72.15;99072.78;5055087;28;21000;-76
2021/03/07 01:23:09;;;;;;;12.73;8.60;;;0.90;69.90;;;0.29;72.02;99066.06;5061218;28;21206;-76
2021/03/07 01:25:37;;;;;;;12.87;7.90;;;0.90;70.70;;;0.28;72.29;99066.91;5053918;28;21046;-76
2021/03/07 01:28:06;;;;;;;11.63;8.07;;;0.90;70.20;;;0.28;71.83;99056.66;5068758;28;20623;-76
2021/03/07 01:30:37;;;;;;;14.03;8.40;;;0.80;70.10;;;0.22;72.24;99055.00;5059525;28;21051;-76
2021/03/07 01:33:06;;;;;;;13.47;8.23;;;0.80;70.40;;;0.18;72.33;99049.94;5066936;28;20628;-76
2021/03/07 01:35:36;;;;;;;14.17;9.20;;;0.80;71.30;;;0.15;72.52;99049.97;5062382;28;21158;-76
2021/03/07 01:38:05;;;;;;;13.33;8.60;;;0.70;70.80;;;0.11;72.67;99045.78;5051371;28;20620;-76
2021/03/07 01:40:37;;;;;;;13.30;9.50;;;0.70;70.70;;;0.08;72.81;99035.56;5063354;28;21029;-76
2021/03/07 01:43:05;;;;;;;13.03;8.40;;;0.70;70.90;;;0.10;72.63;99034.66;5056098;28;20675;-76
2021/03/07 01:45:35;;;;;;;16.50;9.00;;;0.70;70.80;;;0.11;72.77;99022.69;5052243;28;20636;-76
2021/03/07 01:48:05;;;;;;;12.07;9.30;;;0.70;70.90;;;0.12;72.67;99021.81;5060424;28;20636;-76
2021/03/07 01:50:38;;;;;;;13.23;7.80;;;0.70;71.00;;;0.10;72.74;99021.00;5062173;28;20639;-76
2021/03/07 01:53:08;;;;;;;11.67;8.07;;;0.70;71.20;;;0.07;72.74;99013.34;5062108;28;21215;-76
2021/03/07 01:55:38;;;;;;;13.60;8.20;;;0.70;71.00;;;0.04;72.62;99006.53;5052554;28;20975;-76
2021/03/07 01:58:12;;;;;;;12.80;8.37;;;0.60;70.90;;;0.02;72.68;99010.84;5061788;28;20639;-76
2021/03/07 02:00:40;;;;;;;13.00;8.10;;;0.60;70.90;;;0.00;73.04;99002.31;5059488;28;20632;-76
2021/03/07 02:03:08;;;;;;;14.10;8.53;;;0.60;71.00;;;0.01;72.94;98993.75;5065924;28;20628;-76
2021/03/07 02:05:36;;;;;;;13.77;7.70;;;0.60;71.00;;;0.01;72.45;98990.34;5058947;28;20643;-76
2021/03/07 02:08:06;;;;;;;12.10;7.63;;;0.60;70.90;;;0.01;72.64;98982.66;5054930;28;20659;-76
2021/03/07 02:10:38;;;;;;;11.77;8.50;;;0.60;71.00;;;0.01;72.62;98980.94;5055998;28;20621;-76
2021/03/07 02:13:11;;;;;;;13.60;7.60;;;0.60;71.20;;;-0.03;73.10;98982.72;5063578;28;20976;-76
2021/03/07 02:15:43;;;;;;;11.50;8.47;;;0.50;71.20;;;-0.06;73.03;98978.50;5054304;28;20747;-76
2021/03/07 02:18:13;;;;;;;11.40;7.30;;;0.50;71.20;;;-0.08;73.16;98971.69;5068901;28;20985;-76
2021/03/07 02:20:47;;;;;;;8.87;7.17;;;0.50;71.40;;;-0.12;73.21;98968.31;5069540;28;20675;-76
2021/03/07 02:23:20;;;;;;;12.50;8.00;;;0.50;71.50;;;-0.14;72.71;98966.63;5043331;28;20623;-76
2021/03/07 02:25:49;;;;;;;11.23;8.13;;;0.50;71.30;;;-0.21;72.83;98971.00;5060384;28;20640;-74
2021/03/07 02:28:19;;;;;;;11.10;7.70;;;0.40;71.10;;;-0.30;72.71;98967.69;5042971;28;20655;-76
2021/03/07 02:30:47;;;;;;;9.90;7.30;;;0.30;71.00;;;-0.32;73.10;98970.25;5063679;28;20643;-76
2021/03/07 02:33:21;;;;;;;11.60;7.20;;;0.30;71.10;;;-0.35;72.92;98967.72;5062014;28;20660;-76
2021/03/07 02:35:57;;;;;;;11.70;7.17;;;0.30;71.40;;;-0.36;73.10;98965.19;5061749;28;20698;-76
2021/03/07 02:38:26;;;;;;;10.10;7.20;;;0.20;71.30;;;-0.40;73.53;98961.81;5051593;28;21187;-76
2021/03/07 02:40:58;;;;;;;14.07;8.10;;;0.20;71.80;;;-0.39;73.39;98960.13;5058342;28;20674;-76
2021/03/07 02:43:28;;;;;;;9.63;7.40;;;0.20;71.90;;;-0.44;73.08;98957.63;5062174;28;21020;-76
2021/03/07 02:46:00;;;;;;;11.23;7.93;;;0.10;71.40;;;-0.47;73.03;98955.94;5054350;28;20755;-76
2021/03/07 02:48:30;;;;;;;12.23;7.80;;;0.10;71.20;;;-0.52;73.33;98948.31;5065077;28;20213;-76
2021/03/07 02:51:00;;;;;;;12.47;7.97;;;0.10;71.40;;;-0.52;72.75;98942.38;5065486;28;20723;-76
2021/03/07 02:53:31;;;;;;;12.10;7.60;;;0.10;71.20;;;-0.53;73.12;98938.94;5063168;28;20675;-76
2021/03/07 02:56:04;;;;;;;15.20;7.70;;;0.10;71.50;;;-0.52;72.83;98942.38;5067622;28;20275;-76
2021/03/07 02:58:33;;;;;;;11.23;7.27;;;0.10;71.50;;;-0.54;73.33;98944.06;5065453;28;20631;-76
2021/03/07 03:01:05;;;;;;;8.45;7.03;;;0.00;71.60;;;-0.53;73.25;98935.53;5057449;28;20648;-76
2021/03/07 03:03:38;;;;;;;10.20;7.20;;;0.00;71.80;;;-0.55;73.63;98938.13;5054806;28;20209;-76
2021/03/07 03:06:06;;;;;;;9.77;6.60;;;0.00;72.30;;;-0.55;73.40;98932.16;5067392;28;21271;-76
2021/03/07 03:08:35;;;;;;;10.63;7.10;;;0.00;72.30;;;-0.57;73.40;98926.19;5059565;28;20209;-76
2021/03/07 03:11:04;;;;;;;11.97;7.50;;;0.00;72.00;;;-0.60;73.47;98923.66;5056418;28;20210;-76
2021/03/07 03:13:36;;;;;;;12.52;7.80;;;0.00;72.10;;;-0.62;73.52;98920.28;5055493;28;20686;-76
2021/03/07 03:16:06;;;;;;;10.75;7.50;;;0.00;72.30;;;-0.61;73.71;98921.97;5053330;28;20681;-76
2021/03/07 03:18:36;;;;;;;9.50;6.77;;;0.00;72.30;;;-0.64;73.65;98925.41;5053299;28;20252;-76
2021/03/07 03:21:09;;;;;;;12.00;7.43;;;0.00;72.50;;;-0.63;73.68;98921.13;5071768;28;20640;-76
2021/03/07 03:23:38;;;;;;;10.85;7.65;;;0.00;72.40;;;-0.63;73.63;98919.44;5065014;28;20632;-76
2021/03/07 03:26:07;;;;;;;12.23;8.25;;;0.00;73.20;;;-0.65;73.92;98918.59;5063408;28;20304;-76
2021/03/07 03:28:37;;;;;;;10.90;6.90;;;0.00;72.60;;;-0.63;73.87;98923.69;5065747;28;20590;-76
2021/03/07 03:31:05;;;;;;;10.10;6.80;;;0.00;72.70;;;-0.66;73.85;98923.72;5048596;28;20655;-76
2021/03/07 03:33:33;;;;;;;9.68;7.10;;;0.00;72.70;;;-0.57;73.30;98914.25;5079248;28;20629;-76
2021/03/07 03:36:04;;;;;;;10.68;8.02;;;0.00;72.30;;;-0.61;73.28;98916.88;5065131;28;20233;-76
2021/03/07 03:38:38;;;;;;;10.32;6.93;;;-0.10;72.30;;;-0.72;73.29;98914.41;5063726;28;20645;-76
2021/03/07 03:41:09;;;;;;;11.07;6.97;;;-0.10;72.40;;;-0.79;72.71;98909.38;5042003;28;20266;-76
2021/03/07 03:43:57;;;;;;;11.73;7.33;;;-0.20;71.50;;;-0.88;73.34;98914.59;5066246;28;20205;-76
2021/03/07 03:46:28;;;;;;;9.33;6.23;;;-0.20;71.80;;;-0.91;73.58;98922.31;5057773;28;20628;-76
2021/03/07 03:49:02;;;;;;;13.60;7.25;;;-0.20;72.20;;;-0.92;73.72;98910.38;5063682;28;20623;-76
2021/03/07 03:51:35;;;;;;;11.80;7.55;;;-0.30;72.40;;;-0.96;74.07;98911.28;5066287;28;20210;-76
2021/03/07 03:54:04;;;;;;;10.70;6.83;;;-0.30;72.60;;;-0.94;74.11;98909.53;5050853;28;20213;-76
2021/03/07 03:56:34;;;;;;;9.65;6.75;;;-0.30;72.80;;;-0.95;74.17;98909.56;5055289;28;20662;-76
2021/03/07 03:59:03;;;;;;;12.63;7.53;;;-0.30;72.90;;;-0.95;74.05;98912.13;5070818;28;20232;-76
2021/03/07 04:01:33;;;;;;;9.63;6.93;;;-0.30;73.20;;;-0.92;74.29;98907.81;5067343;28;20259;-76
2021/03/07 04:04:04;;;;;;;10.82;6.78;;;-0.30;73.30;;;-0.94;74.02;98907.00;5073655;28;20202;-76
2021/03/07 04:06:33;;;;;;;11.98;7.30;;;-0.30;73.20;;;-0.95;74.02;98905.28;5066928;28;20621;-76
2021/03/07 04:09:01;;;;;;;8.80;6.33;;;-0.30;73.20;;;-1.00;74.68;98903.66;5068122;28;20258;-76
2021/03/07 04:11:29;;;;;;;9.07;5.53;;;-0.40;73.10;;;-1.01;74.20;98909.63;5069324;28;20980;-76
2021/03/07 04:14:17;;;;;;;8.17;6.10;;;-0.40;73.10;;;-1.02;74.41;98907.91;5061708;28;20639;-76
2021/03/07 04:16:47;;;;;;;9.27;6.20;;;-0.40;73.30;;;-1.05;74.17;98911.38;5059056;28;20716;-76
2021/03/07 04:19:17;;;;;;;9.82;6.70;;;-0.40;73.30;;;-1.05;74.28;98903.69;5055169;28;20673;-76
2021/03/07 04:21:46;;;;;;;10.20;6.97;;;-0.40;73.30;;;-1.07;74.31;98912.25;5070466;28;20630;-76
2021/03/07 04:24:14;;;;;;;12.95;7.22;;;-0.40;73.40;;;-1.10;73.79;98912.28;5061664;28;20951;-76
2021/03/07 04:26:42;;;;;;;8.98;6.05;;;-0.40;73.40;;;-1.10;74.24;98908.00;5056413;28;20202;-76
2021/03/07 04:29:10;;;;;;;10.40;6.30;;;-0.50;73.20;;;-1.14;74.05;98908.91;5062488;28;20309;-76
2021/03/07 04:31:40;;;;;;;10.38;7.78;;;-0.50;73.20;;;-1.11;74.21;98908.00;5064941;28;20843;-76
2021/03/07 04:34:08;;;;;;;9.40;7.70;;;-0.50;73.30;;;-1.14;74.15;98906.34;5071435;28;20240;-76
2021/03/07 04:36:38;;;;;;;10.85;7.15;;;-0.50;73.30;;;-1.11;74.32;98901.19;5061010;28;20746;-76
2021/03/07 04:39:06;;;;;;;9.68;6.53;;;-0.50;73.50;;;-1.16;74.13;98895.25;5071026;28;20201;-76
2021/03/07 04:41:34;;;;;;;10.07;6.70;;;-0.50;73.30;;;-1.22;74.09;98886.81;5057196;28;21171;-76
2021/03/07 04:44:02;;;;;;;11.07;7.10;;;-0.60;73.10;;;-1.20;74.16;98887.66;5069248;28;20640;-76
2021/03/07 04:46:30;;;;;;;11.23;6.60;;;-0.60;73.30;;;-1.25;74.24;98885.16;5062133;28;20628;-76
2021/03/07 04:48:59;;;;;;;10.40;7.03;;;-0.60;73.30;;;-1.26;74.15;98877.50;5061701;28;20986;-76
2021/03/07 04:51:27;;;;;;;8.17;6.23;;;-0.60;73.30;;;-1.28;74.33;98879.19;5063913;28;20623;-76
2021/03/07 04:53:55;;;;;;;10.33;6.20;;;-0.60;73.50;;;-1.32;74.79;98865.59;5060702;28;20678;-76
2021/03/07 04:56:22;;;;;;;9.68;6.15;;;-0.70;74.30;;;-1.33;74.48;98871.56;5066728;28;20660;-76
2021/03/07 04:58:50;;;;;;;9.73;6.95;;;-0.70;73.60;;;-1.34;74.63;98864.78;5068442;28;20206;-76
2021/03/07 05:01:18;;;;;;;11.47;7.17;;;-0.70;73.80;;;-1.34;74.79;98867.34;5055663;28;20650;-76
2021/03/07 05:03:46;;;;;;;10.47;7.30;;;-0.70;73.80;;;-1.37;74.76;98864.81;5057755;28;21038;-76
2021/03/07 05:06:15;;;;;;;10.43;6.30;;;-0.70;73.90;;;-1.39;74.39;98865.66;5063896;28;20969;-76
2021/03/07 05:08:42;;;;;;;12.43;6.90;;;-0.70;73.60;;;-1.42;74.53;98868.25;5068694;28;20623;-76
2021/03/07 05:11:10;;;;;;;9.90;6.53;;;-0.80;73.60;;;-1.47;74.70;98856.38;5063253;28;20262;-76
2021/03/07 05:13:37;;;;;;;11.15;6.93;;;-0.80;73.70;;;-1.49;74.69;98860.66;5063056;28;20684;-76
2021/03/07 05:16:06;;;;;;;7.38;5.85;;;-0.80;73.80;;;-1.50;75.05;98857.25;5047581;28;20222;-76
2021/03/07 05:18:34;;;;;;;8.32;6.15;;;-0.80;74.10;;;-1.49;75.05;98864.03;5067217;28;20205;-76
2021/03/07 05:21:02;;;;;;;11.20;6.70;;;-0.80;75.10;;;-1.51;74.85;98857.28;5057406;28;20741;-76
2021/03/07 05:23:30;;;;;;;10.57;7.05;;;-0.80;74.40;;;-1.51;75.18;98864.94;5064931;28;21230;-76
2021/03/07 05:25:58;;;;;;;10.30;6.88;;;-0.90;74.30;;;-1.50;75.12;98862.38;5065649;28;20247;-76
2021/03/07 05:28:25;;;;;;;9.85;6.63;;;-0.90;74.40;;;-1.51;75.08;98862.38;5066301;28;20242;-76
2021/03/07 05:30:53;;;;;;;8.60;6.45;;;-0.90;74.40;;;-1.50;74.90;98862.38;5061029;28;20216;-76
2021/03/07 05:33:21;;;;;;;10.40;7.22;;;-0.80;74.40;;;-1.50;75.01;98864.06;5066499;28;20591;-76
2021/03/07 05:35:48;;;;;;;10.77;6.70;;;-0.90;74.40;;;-1.51;75.06;98862.38;5064124;28;20760;-76
2021/03/07 05:38:16;;;;;;;11.55;7.40;;;-0.90;74.40;;;-1.52;75.21;98860.69;5058480;28;20636;-76
2021/03/07 05:40:45;;;;;;;10.67;6.90;;;-0.90;74.50;;;-1.55;75.35;98863.25;5062247;28;20331;-76
2021/03/07 05:43:13;;;;;;;12.90;9.70;;;-0.90;74.80;;;-1.52;75.72;98861.50;5065306;28;20643;-76
2021/03/07 05:45:41;;;;;;;10.93;7.72;;;-0.90;74.90;;;-1.51;75.20;98849.59;5062068;28;20284;-76
2021/03/07 05:48:09;;;;;;;8.57;6.57;;;-0.90;74.80;;;-1.54;75.58;98857.31;5039257;28;20231;-76
2021/03/07 05:50:37;;;;;;;10.07;6.87;;;-0.90;74.80;;;-1.52;75.17;98843.63;5062550;28;20206;-76
2021/03/07 05:53:04;;;;;;;10.60;7.07;;;-0.90;75.00;;;-1.53;75.27;98838.53;5058699;28;20636;-76
2021/03/07 05:55:35;;;;;;;10.90;6.38;;;-0.90;75.10;;;-1.50;75.24;98841.06;5054837;28;21013;-76
2021/03/07 05:58:04;;;;;;;8.43;6.10;;;-0.90;75.20;;;-1.47;75.63;98838.47;5072428;28;20228;-76
2021/03/07 06:00:32;;;;;;;9.20;6.77;;;-0.90;74.90;;;-1.47;75.26;98841.91;5068160;28;20206;-76
2021/03/07 06:03:00;;;;;;;11.25;7.47;;;-0.90;74.80;;;-1.46;75.40;98828.22;5065913;28;21000;-76
2021/03/07 06:05:28;;;;;;;8.93;6.50;;;-0.80;75.10;;;-1.45;75.49;98829.94;5051943;28;20190;-76
2021/03/07 06:07:55;;;;;;;10.00;6.40;;;-0.80;75.20;;;-1.43;75.37;98832.47;5066031;28;20619;-76
2021/03/07 06:10:26;;;;;;;10.67;6.10;;;-0.80;75.20;;;-1.46;75.53;98823.13;5057248;28;20660;-76
2021/03/07 06:13:00;;;;;;;9.32;6.18;;;-0.80;75.20;;;-1.43;75.39;98827.34;5048803;28;20674;-76
2021/03/07 06:15:50;;;;;;;10.15;7.13;;;-0.80;75.10;;;-1.31;75.54;98820.41;5075981;28;20709;-76
2021/03/07 06:18:20;;;;;;;9.68;6.63;;;-0.80;75.40;;;-1.04;75.30;98820.09;5074018;28;20240;-76
2021/03/07 06:20:52;;;;;;;8.50;6.45;;;-0.60;75.80;;;-0.81;75.51;98811.31;5065708;28;20292;-76
2021/03/07 06:23:35;;;;;;;8.43;6.50;;;-0.40;76.10;;;-0.51;74.38;98828.81;5057063;28;20268;-76
2021/03/07 06:26:10;;;;;;;9.93;6.90;;;-0.10;75.40;;;-0.30;73.57;98827.66;5065836;28;20946;-76
2021/03/07 06:28:38;;;;;;;10.70;6.87;;;0.10;74.50;;;-0.11;73.15;98818.81;5057410;28;21196;-76
2021/03/07 06:31:29;;;;;;;9.63;6.20;;;0.30;74.30;;;0.16;71.96;98818.41;5060158;28;20630;-76
2021/03/07 06:33:58;;;;;;;10.97;6.47;;;0.50;73.20;;;0.36;72.15;98826.59;5062339;28;20254;-76
2021/03/07 06:36:27;;;;;;;17.90;11.13;;;0.70;72.90;;;0.55;71.33;98824.53;5056187;28;20732;-76
2021/03/07 06:38:58;;;;;;;12.03;7.10;;;0.90;72.00;;;0.73;71.00;98819.06;5055598;28;20728;-76
2021/03/07 06:41:27;;;;;;;25.77;12.97;;;1.00;71.50;;;0.92;70.40;98815.31;5069280;28;20701;-76
2021/03/07 06:44:08;;;;;;;10.53;7.43;;;1.20;71.10;;;1.10;69.88;98823.50;5050622;28;21033;-76
2021/03/07 06:46:40;;;;;;;16.90;9.60;;;1.40;70.80;;;1.28;69.44;98820.56;5060408;28;20632;-76
2021/03/07 06:49:22;;;;;;;13.90;8.33;;;1.50;69.70;;;1.45;69.22;98824.44;5068797;28;21260;-76
2021/03/07 06:51:50;;;;;;;10.20;7.80;;;1.80;69.50;;;1.61;68.14;98818.13;5058123;28;20647;-76
2021/03/07 06:54:20;;;;;;;12.30;8.20;;;1.90;68.50;;;1.76;68.55;98809.22;5042092;28;20647;-73
2021/03/07 06:56:49;;;;;;;9.50;7.63;;;2.00;68.80;;;1.81;67.39;98810.81;5054608;28;20644;-78
2021/03/07 06:59:19;;;;;;;9.37;7.37;;;2.10;67.30;;;2.01;66.53;98808.63;5060694;28;20652;-77
2021/03/07 07:01:49;;;;;;;10.20;6.90;;;2.30;66.80;;;2.17;66.53;98810.81;5070587;28;21236;-78
2021/03/07 07:04:18;;;;;;;9.07;6.87;;;2.40;65.70;;;2.29;66.82;98818.22;5062784;28;20632;-77
2021/03/07 07:07:01;;;;;;;8.20;6.50;;;2.50;66.00;;;2.47;66.43;98818.63;5057416;28;20672;-76
2021/03/07 07:09:29;;;;;;;7.37;6.10;;;2.70;65.80;;;2.62;65.54;98823.38;5057898;28;20641;-76
2021/03/07 07:11:57;;;;;;;8.47;6.50;;;2.90;64.70;;;2.70;64.76;98816.28;5062639;28;20670;-76
2021/03/07 07:14:38;;;;;;;10.37;6.90;;;3.00;63.60;;;2.88;66.20;98820.97;5082749;28;20636;-76
2021/03/07 07:17:09;;;;;;;9.70;7.30;;;3.10;64.40;;;3.04;65.54;98819.69;5052358;28;20655;-76
2021/03/07 07:19:37;;;;;;;8.60;6.50;;;3.20;64.00;;;3.21;64.84;98820.06;5060607;28;21191;-76
2021/03/07 07:22:06;;;;;;;9.10;7.10;;;3.40;63.50;;;3.25;64.55;98824.22;5060789;28;21042;-76
2021/03/07 07:24:35;;;;;;;8.40;6.23;;;3.40;62.70;;;3.49;64.51;98816.66;5062467;28;21164;-75
2021/03/07 07:27:03;;;;;;;13.83;7.50;;;3.70;63.60;;;3.65;63.92;98821.28;5062952;28;20619;-75
2021/03/07 07:29:30;;;;;;;9.17;7.10;;;3.80;62.50;;;3.79;63.31;98816.59;5051822;28;20647;-76
2021/03/07 07:32:06;;;;;;;16.70;8.50;;;3.90;61.80;;;3.98;63.72;98812.53;5059900;28;21226;-76
2021/03/07 07:34:39;;;;;;;12.50;7.77;;;4.10;62.10;;;4.09;63.00;98806.19;5057747;28;20699;-76
2021/03/07 07:37:13;;;;;;;10.37;7.57;;;4.30;60.80;;;4.20;61.99;98808.41;5062714;28;21245;-75
2021/03/07 07:39:42;;;;;;;10.30;8.07;;;4.40;60.30;;;4.32;62.46;98809.69;5061760;28;21179;-75
2021/03/07 07:42:26;;;;;;;10.10;6.70;;;4.40;59.90;;;4.60;62.28;98810.50;5066412;28;20627;-76
2021/03/07 07:44:59;;;;;;;9.40;6.40;;;4.70;60.70;;;4.71;61.58;98809.22;5053587;28;20996;-76
2021/03/07 07:47:42;;;;;;;8.07;6.70;;;4.80;59.20;;;4.84;63.28;98813.09;5060522;28;21205;-76
2021/03/07 07:50:31;;;;;;;6.87;5.33;;;5.00;60.70;;;5.04;60.71;98814.97;5062871;28;20734;-76
2021/03/07 07:53:01;;;;;;;6.93;5.63;;;5.10;58.80;;;5.16;61.65;98798.13;5041524;28;20644;-75
2021/03/07 07:55:44;;;;;;;10.27;5.83;;;5.30;59.50;;;5.32;59.84;98799.28;5059333;28;20640;-75
2021/03/07 07:58:48;;;;;;;6.93;5.33;;;5.40;58.30;;;5.46;60.11;98804.78;5060092;28;20644;-75
2021/03/07 08:01:16;;;;;;;7.97;6.30;;;5.50;58.60;;;5.70;59.32;98796.09;5057160;28;20636;-76
2021/03/07 08:03:49;;;;;;;9.37;5.80;;;5.80;58.10;;;5.92;59.64;98807.34;5064555;28;20620;-76
2021/03/07 08:06:45;;;;;;;8.53;5.80;;;6.00;58.00;;;6.11;60.09;98801.41;5062064;28;20697;-75
2021/03/07 08:09:49;;;;;;;7.43;6.10;;;6.20;57.70;;;6.35;59.47;98806.44;5050336;28;20640;-76
2021/03/07 08:12:51;;;;;;;6.33;5.50;;;6.40;57.50;;;6.52;58.16;98806.59;5049645;28;20621;-76
2021/03/07 08:15:48;;;;;;;10.37;6.10;;;6.60;56.30;;;6.43;57.33;98801.78;5058103;28;20641;-75
2021/03/07 08:18:18;;;;;;;8.40;5.90;;;6.50;54.80;;;6.51;58.14;98798.88;5052857;28;21148;-76
2021/03/07 08:21:07;;;;;;;8.73;6.83;;;6.60;56.00;;;6.67;58.68;98798.19;5061881;28;20688;-75
2021/03/07 08:23:57;;;;;;;8.90;6.33;;;6.70;55.50;;;6.86;58.35;98799.94;5073683;28;20754;-75
2021/03/07 08:26:28;;;;;;;8.63;6.77;;;6.90;56.10;;;6.99;57.27;98792.47;5059288;28;20627;-75
2021/03/07 08:28:56;;;;;;;7.57;5.70;;;7.00;55.50;;;7.03;56.92;98800.06;5062829;28;20629;-75
2021/03/07 08:31:35;;;;;;;9.67;6.20;;;7.10;54.50;;;7.07;56.57;98791.25;5059724;28;20695;-75
2021/03/07 08:34:24;;;;;;;8.27;6.97;;;7.10;54.50;;;7.16;57.41;98790.84;5056837;28;20648;-75
2021/03/07 08:37:00;;;;;;;7.53;6.23;;;7.20;54.70;;;7.26;56.94;98777.41;5061740;28;20658;-76
2021/03/07 08:39:30;;;;;;;7.47;6.70;;;7.30;54.70;;;7.44;57.07;98786.94;5067382;28;20640;-75
2021/03/07 08:42:05;;;;;;;9.50;5.87;;;7.40;54.60;;;7.49;54.77;98777.22;5060798;28;20642;-75
2021/03/07 08:44:33;;;;;;;6.07;4.73;;;7.50;52.60;;;7.66;56.25;98775.53;5062769;28;21168;-73
2021/03/07 08:47:01;;;;;;;7.13;5.20;;;7.70;53.10;;;7.78;54.44;98781.94;5057542;28;20652;-73
2021/03/07 08:49:31;;;;;;;6.00;4.83;;;7.80;51.50;;;8.06;55.03;98776.22;5059565;28;20651;-71
2021/03/07 08:52:06;;;;;;;7.50;5.50;;;8.10;53.10;;;8.07;51.64;98777.91;5060153;28;20631;-69
2021/03/07 08:54:35;;;;;;;6.27;4.73;;;8.10;49.60;;;8.18;53.84;98787.81;5060055;28;21596;-73
2021/03/07 08:57:09;;;;;;;6.10;5.00;;;8.20;51.10;;;8.41;53.05;98782.34;5056030;28;20646;-73
2021/03/07 08:59:37;;;;;;;7.80;5.00;;;8.40;51.60;;;8.54;51.10;98781.69;5054647;28;21268;-75
2021/03/07 09:02:05;;;;;;;6.43;5.33;;;8.60;50.00;;;8.46;51.83;98776.84;5057411;28;22792;-73
2021/03/07 09:04:38;;;;;;;7.53;5.30;;;8.50;48.70;;;8.41;50.97;98770.19;5055533;28;20636;-73
2021/03/07 09:07:07;;;;;;;7.10;5.73;;;8.40;48.20;;;8.55;52.49;98776.41;5056981;28;21093;-73
2021/03/07 09:09:41;;;;;;;7.00;5.70;;;8.60;49.50;;;8.80;52.99;98768.22;5056912;28;20622;-73
2021/03/07 09:12:09;;;;;;;6.07;5.47;;;8.80;50.20;;;9.03;52.04;98763.50;5058272;28;20700;-73
2021/03/07 09:14:40;;;;;;;6.70;6.00;;;9.00;49.60;;;9.23;52.51;98764.16;5060689;28;21018;-74
2021/03/07 09:17:17;;;;;;;9.10;5.70;;;9.20;50.20;;;9.42;52.50;98757.88;5061417;28;21173;-75
2021/03/07 09:19:45;;;;;;;5.13;4.60;;;9.40;49.60;;;9.57;52.29;98759.69;5065870;28;24096;-74
2021/03/07 09:22:23;;;;;;;6.97;5.63;;;9.60;49.60;;;9.59;52.97;98744.84;5064499;28;20639;-74
2021/03/07 09:25:04;;;;;;;7.63;5.70;;;9.70;50.40;;;9.64;54.12;98750.63;5061059;28;20703;-74
2021/03/07 09:27:35;;;;;;;7.20;5.67;;;9.70;50.10;;;9.72;53.54;98742.41;5061457;28;20632;-75
2021/03/07 09:30:12;;;;;;;9.53;6.20;;;9.80;49.60;;;9.87;52.39;98742.41;5064145;28;20714;-74
2021/03/07 09:32:42;;;;;;;6.90;5.87;;;10.00;49.10;;;9.94;52.57;98739.41;5059544;28;20684;-74
2021/03/07 09:35:23;;;;;;;7.70;5.90;;;10.00;48.00;;;10.12;53.10;98740.97;5055817;28;20753;-74
2021/03/07 09:37:58;;;;;;;9.20;5.93;;;10.20;49.60;;;10.13;52.04;98731.38;5059983;28;21218;-73
2021/03/07 09:40:27;;;;;;;7.47;6.37;;;10.20;47.80;;;10.19;51.89;98731.03;5056973;28;21229;-73
2021/03/07 09:42:58;;;;;;;9.93;7.10;;;10.20;48.00;;;10.22;51.42;98720.44;5062082;28;20707;-74
2021/03/07 09:45:27;;;;;;;7.47;6.50;;;10.30;47.50;;;10.17;52.33;98725.91;5063512;28;20639;-74
2021/03/07 09:48:16;;;;;;;10.67;7.60;;;10.20;47.60;;;10.16;51.50;98718.19;5054894;28;20655;-74
2021/03/07 09:50:45;;;;;;;8.43;6.90;;;10.20;47.30;;;10.15;51.22;98714.75;5056385;28;20628;-74
2021/03/07 09:53:14;;;;;;;8.70;6.63;;;10.20;46.90;;;10.37;52.21;98717.78;5059189;28;20658;-74
2021/03/07 09:55:43;;;;;;;8.90;6.40;;;10.40;48.70;;;10.57;52.89;98710.50;5059883;28;20659;-74
2021/03/07 09:58:13;;;;;;;7.90;7.10;;;10.60;49.00;;;10.74;51.80;98704.31;5059963;28;20656;-75
2021/03/07 10:00:48;;;;;;;8.53;7.60;;;10.70;48.40;;;10.85;51.16;98706.19;5055826;28;20676;-75
2021/03/07 10:03:22;;;;;;;8.33;6.87;;;10.90;47.30;;;10.83;49.81;98707.19;5074746;28;20640;-75
2021/03/07 10:06:11;;;;;;;7.53;6.50;;;10.90;45.80;;;10.80;50.13;98701.34;5055071;28;20668;-74
2021/03/07 10:08:41;;;;;;;10.37;7.13;;;10.90;45.60;;;10.81;51.47;98699.47;5057245;28;21497;-74
2021/03/07 10:11:18;;;;;;;8.27;6.57;;;10.90;46.30;;;11.00;51.36;98696.59;5059247;28;20638;-74
2021/03/07 10:13:58;;;;;;;9.93;8.17;;;11.00;47.20;;;11.10;54.58;98692.50;5059289;28;20625;-74
2021/03/07 10:16:28;;;;;;;10.37;8.10;;;11.10;49.00;;;11.19;54.10;98691.94;5056838;28;21188;-75
2021/03/07 10:19:09;;;;;;;9.87;8.10;;;11.20;49.80;;;11.23;53.39;98694.28;5058386;28;20642;-75
2021/03/07 10:21:37;;;;;;;9.83;7.73;;;11.30;49.00;;;11.20;52.71;98689.25;5060706;28;20647;-75
2021/03/07 10:24:11;;;;;;;9.37;8.00;;;11.30;49.80;;;11.27;53.92;98695.75;5060607;28;20639;-75
2021/03/07 10:26:42;;;;;;;10.40;8.90;;;11.30;48.70;;;11.20;54.02;98691.84;5057581;28;20635;-75
2021/03/07 10:29:28;;;;;;;12.63;9.00;;;11.20;49.10;;;11.15;51.89;98677.38;5060794;28;22715;-75
2021/03/07 10:32:17;;;;;;;10.40;8.40;;;11.20;47.60;;;11.15;54.66;98685.22;5058722;28;20639;-75
2021/03/07 10:34:50;;;;;;;12.43;9.67;;;11.20;49.50;;;11.04;53.65;98679.81;5052416;28;20720;-75
2021/03/07 10:37:36;;;;;;;10.37;8.00;;;11.10;49.30;;;10.86;52.17;98676.53;5043685;28;20639;-75
2021/03/07 10:40:10;;;;;;;11.30;8.37;;;11.00;47.80;;;10.79;52.29;98679.59;5058432;28;20701;-75
2021/03/07 10:42:39;;;;;;;10.77;8.70;;;10.90;48.00;;;10.79;53.07;98673.56;5067097;28;20635;-75